Thatcher, AZ

2:15 PM MST on December 09, 2019 (GMT -0700)
Thatcher, Robinson Ranch Road | | Change Station

Elev 2982 ft 32.82 °N, 109.75 °W | Updated 8 seconds ago

Rain
Rain
46.2 °F
Feels Like 41 °F
N
11
Wind Variable Wind from West
Gusts 11.0 mph

Today
High -- | Low -- °F
--% Chance of Precip.
Yesterday
High -- | Low -- °F
Precip. -- in
Pressure 29.91 in
Visibility 1.5 miles
Clouds Few 1800 ft
Overcast 3100 ft
Windchill 41 °F
Dew Point 46 °F
Humidity 99%
Rainfall 0.62 in
Snow Depth Not available.
7:09 AM 5:12 PM
Waxing Gibbous, 94% visible
METAR KSAD 092051Z AUTO 30018G32KT 1 1/2SM VCTS +RA BR FEW018 OVC031 08/07 A2995 RMK AO2 PK WND 32040/2025 WSHFT 2022 LTG DSNT S AND SW PRESRR SLP127 P0020 60021 T00780067 55002
Pressure 29.91 in
Visibility 1.5 miles
Clouds Few 1800 ft
Overcast 3100 ft
Windchill 41 °F
Dew Point 46 °F
Humidity 99%
Rainfall 0.62 in
Snow Depth Not available.
7:09 AM 5:12 PM
Waxing Gibbous, 94% visible
METAR KSAD 092051Z AUTO 30018G32KT 1 1/2SM VCTS +RA BR FEW018 OVC031 08/07 A2995 RMK AO2 PK WND 32040/2025 WSHFT 2022 LTG DSNT S AND SW PRESRR SLP127 P0020 60021 T00780067 55002

Get Severe Weather Alerts

Thanks for signing up!

Be on the lookout for a verification email in your inbox.

You'll start receiving the daily forecast at 6 AM.

×

10-Day Weather Forecast

Almanac

Astronomy

Dec. 09, 2019 Rise Set
Actual Time
Civil Twilight
Nautical Twilight
Astronomical Twilight
Moon
Length of Visible Light
Length of Day
Tomorrow will be .
, % of the Moon is Illuminated

Today's Extremes

State Highs State Lows

Community

WunderPhotos

Category 6

Welcome to Category 6. This is the collective home for Weather Underground's featured writeups by Dr. Jeff Masters (right), Bob Henson (left), Chris Burt, and other regular contributors.

Nearby

Air Quality

  Air Quality AQ Index Pollutant
Not available.

Snow Depth

Station Depth Elevation

Earthquake Activity

City Distance Mag. Time & Date
Minimum magnitude displayed is 2.5.

Coastal Water Temperatures

Place Temperature

Stations

Nearby Weather Stations

Station Location Temp. Windchill Dew Point Humidity Wind Precip. Elev Updated Type
                   

Watches & Warnings

There are currently no watches in effect.